createdAt,value
2022-12-08T00:00:55.051Z,93.68
2022-12-08T00:01:55.098Z,93.68
2022-12-08T00:02:55.152Z,93.99
2022-12-08T00:03:55.051Z,93.57
2022-12-08T00:04:55.045Z,93.88
2022-12-08T00:05:55.010Z,93.57
2022-12-08T00:06:55.020Z,93.26
2022-12-08T00:07:55.057Z,93.68
2022-12-08T00:08:54.991Z,93.47
2022-12-08T00:09:55.002Z,93.99
2022-12-08T00:10:55.003Z,93.57
2022-12-08T00:11:54.982Z,93.68
2022-12-08T00:12:54.958Z,93.63
2022-12-08T00:13:54.969Z,93.26
2022-12-08T00:14:54.951Z,93.57
2022-12-08T00:15:54.975Z,93.41
2022-12-08T00:16:55.048Z,93.82
2022-12-08T00:17:54.937Z,93.82
2022-12-08T00:18:54.944Z,93.88
2022-12-08T00:19:54.949Z,94.03
2022-12-08T00:20:54.947Z,94.13
2022-12-08T00:21:54.898Z,94.03
2022-12-08T00:22:54.921Z,94.34
2022-12-08T00:23:54.917Z,94.34
2022-12-08T00:24:54.901Z,94.45
2022-12-08T00:25:54.914Z,94.86
2022-12-08T00:26:54.863Z,95.17
2022-12-08T00:27:55.024Z,95.32
2022-12-08T00:28:54.856Z,95.94
2022-12-08T00:29:54.863Z,95.94
2022-12-08T00:30:54.866Z,96.04
2022-12-08T00:31:54.953Z,96.25
2022-12-08T00:32:54.864Z,95.69
2022-12-08T00:33:54.842Z,95.59
2022-12-08T00:34:54.847Z,95.28
2022-12-08T00:35:54.801Z,94.96
2022-12-08T00:36:55.812Z,94.96
2022-12-08T00:38:00.496Z,94.55
2022-12-08T00:38:56.811Z,94.65
2022-12-08T00:39:54.805Z,94.34
2022-12-08T00:40:54.796Z,94.55
2022-12-08T00:41:54.790Z,94.86
2022-12-08T00:42:54.797Z,94.80
2022-12-08T00:43:54.772Z,94.45
2022-12-08T00:44:54.744Z,94.55
2022-12-08T00:45:54.782Z,94.34
2022-12-08T00:46:54.768Z,94.20
2022-12-08T00:47:54.810Z,93.62
2022-12-08T00:48:54.731Z,93.93
2022-12-08T00:49:54.699Z,93.57
2022-12-08T00:50:54.737Z,93.41
2022-12-08T00:51:54.727Z,93.72
2022-12-08T00:52:54.739Z,92.94
2022-12-08T00:53:54.698Z,93.05
2022-12-08T00:54:54.765Z,92.74
2022-12-08T00:55:54.722Z,92.84
2022-12-08T00:56:54.733Z,92.78
2022-12-08T00:57:54.684Z,92.78
2022-12-08T00:58:54.661Z,92.78
2022-12-08T00:59:55.664Z,93.10
2022-12-08T01:00:54.766Z,93.20
2022-12-08T01:01:54.633Z,93.05
2022-12-08T01:02:54.742Z,93.20
2022-12-08T01:03:54.620Z,92.94
2022-12-08T01:04:54.647Z,93.10
2022-12-08T01:05:54.608Z,92.94
2022-12-08T01:06:54.591Z,93.10
2022-12-08T01:07:54.714Z,92.99
2022-12-08T01:08:54.618Z,93.16
2022-12-08T01:09:54.560Z,93.10
2022-12-08T01:10:54.610Z,93.41
2022-12-08T01:11:54.574Z,93.16
2022-12-08T01:12:54.565Z,93.10
2022-12-08T01:13:54.580Z,93.30
2022-12-08T01:14:57.976Z,93.41
2022-12-08T01:15:56.596Z,93.62
2022-12-08T01:16:54.568Z,94.03
2022-12-08T01:17:54.528Z,94.13
2022-12-08T01:18:54.606Z,94.03
2022-12-08T01:19:54.524Z,94.03
2022-12-08T01:20:54.548Z,93.72
2022-12-08T01:21:54.527Z,93.72
2022-12-08T01:22:54.499Z,93.93
2022-12-08T01:23:54.500Z,93.93
2022-12-08T01:24:54.512Z,93.93
2022-12-08T01:25:54.491Z,93.97
2022-12-08T01:26:54.470Z,94.38
2022-12-08T01:27:54.457Z,94.45
2022-12-08T01:28:54.496Z,94.96
2022-12-08T01:29:54.519Z,94.45
2022-12-08T01:30:54.499Z,94.59
2022-12-08T01:31:54.472Z,94.76
2022-12-08T01:32:54.443Z,94.86
2022-12-08T01:33:54.415Z,94.76
2022-12-08T01:34:54.435Z,94.55
2022-12-08T01:35:54.434Z,94.55
2022-12-08T01:36:54.427Z,94.13
2022-12-08T01:37:54.430Z,94.38
2022-12-08T01:38:54.392Z,94.80
2022-12-08T01:39:54.394Z,94.59
2022-12-08T01:40:54.399Z,94.49
2022-12-08T01:41:54.381Z,94.18
2022-12-08T01:42:54.393Z,94.28
2022-12-08T01:43:54.364Z,94.03
2022-12-08T01:44:54.358Z,93.93
2022-12-08T01:45:54.368Z,93.76
2022-12-08T01:46:54.350Z,94.03
2022-12-08T01:47:54.438Z,93.62
2022-12-08T01:48:54.314Z,93.30
2022-12-08T01:49:54.347Z,93.62
2022-12-08T01:50:54.323Z,93.51
2022-12-08T01:51:54.313Z,93.41
2022-12-08T01:52:54.321Z,92.99
2022-12-08T01:53:54.309Z,93.20
2022-12-08T01:54:54.320Z,93.20
2022-12-08T01:55:54.271Z,93.10
2022-12-08T01:56:54.276Z,93.51
2022-12-08T01:57:54.297Z,93.30
2022-12-08T01:58:54.260Z,93.30
2022-12-08T01:59:54.236Z,93.30
2022-12-08T02:00:54.319Z,93.26
2022-12-08T02:01:54.290Z,92.84
2022-12-08T02:02:54.432Z,92.57
2022-12-08T02:03:54.279Z,92.74
2022-12-08T02:04:54.219Z,92.63
2022-12-08T02:05:54.215Z,92.84
2022-12-08T02:06:54.207Z,92.78
2022-12-08T02:07:54.254Z,92.74
2022-12-08T02:08:54.255Z,92.63
2022-12-08T02:09:54.240Z,92.74
2022-12-08T02:10:54.193Z,92.47
2022-12-08T02:11:54.202Z,92.88
2022-12-08T02:12:54.168Z,92.78
2022-12-08T02:13:54.194Z,93.30
2022-12-08T02:14:54.175Z,93.20
2022-12-08T02:15:54.199Z,92.99
2022-12-08T02:16:54.147Z,93.10
2022-12-08T02:17:54.150Z,93.30
2022-12-08T02:19:22.521Z,93.55
2022-12-08T02:19:56.146Z,93.66
2022-12-08T02:20:54.127Z,93.97
2022-12-08T02:21:54.109Z,93.97
2022-12-08T02:22:54.098Z,94.70
2022-12-08T02:23:54.081Z,94.95
2022-12-08T02:24:54.103Z,95.05
2022-12-08T02:25:54.102Z,96.03
2022-12-08T02:26:54.102Z,95.93
2022-12-08T02:27:55.054Z,95.67
2022-12-08T02:28:54.055Z,95.89
2022-12-08T02:29:54.126Z,96.24
2022-12-08T02:30:54.079Z,96.14
2022-12-08T02:31:55.067Z,96.34
2022-12-08T02:32:54.071Z,96.34
2022-12-08T02:33:54.022Z,96.03
2022-12-08T02:34:54.002Z,95.83
2022-12-08T02:35:54.017Z,96.55
2022-12-08T02:36:54.041Z,97.07
2022-12-08T02:37:54.049Z,96.86
2022-12-08T02:38:54.019Z,97.03
2022-12-08T02:39:53.999Z,96.92
2022-12-08T02:40:53.960Z,96.92
2022-12-08T02:41:53.962Z,96.51
2022-12-08T02:42:53.956Z,96.51
2022-12-08T02:43:53.977Z,95.73
2022-12-08T02:44:53.950Z,95.84
2022-12-08T02:45:53.990Z,95.94
2022-12-08T02:46:53.934Z,94.80
2022-12-08T02:47:53.926Z,95.01
2022-12-08T02:48:53.988Z,94.59
2022-12-08T02:49:53.969Z,94.38
2022-12-08T02:50:53.910Z,94.18
2022-12-08T02:51:53.912Z,94.12
2022-12-08T02:52:53.903Z,94.07
2022-12-08T02:53:53.916Z,93.97
2022-12-08T02:54:53.917Z,94.07
2022-12-08T02:55:53.893Z,94.07
2022-12-08T02:56:53.867Z,94.01
2022-12-08T02:57:53.942Z,94.18
2022-12-08T02:58:53.896Z,94.12
2022-12-08T02:59:53.852Z,94.68
2022-12-08T03:00:53.863Z,95.40
2022-12-08T03:01:53.928Z,95.51
2022-12-08T03:02:53.893Z,95.93
2022-12-08T03:03:53.851Z,95.76
2022-12-08T03:04:53.843Z,96.91
2022-12-08T03:05:53.839Z,96.76
2022-12-08T03:06:53.812Z,97.07
2022-12-08T03:07:53.890Z,96.86
2022-12-08T03:08:53.848Z,97.28
2022-12-08T03:09:53.790Z,97.43
2022-12-08T03:10:53.825Z,96.97
2022-12-08T03:11:53.796Z,96.76
2022-12-08T03:12:53.810Z,96.72
2022-12-08T03:13:53.795Z,96.41
2022-12-08T03:14:53.794Z,96.86
2022-12-08T03:15:53.859Z,96.61
2022-12-08T03:16:53.744Z,96.34
2022-12-08T03:17:53.772Z,96.45
2022-12-08T03:18:53.729Z,96.66
2022-12-08T03:19:53.755Z,96.76
2022-12-08T03:20:53.716Z,96.24
2022-12-08T03:21:53.762Z,97.03
2022-12-08T03:22:53.780Z,96.51
2022-12-08T03:23:53.702Z,96.92
2022-12-08T03:24:53.704Z,96.20
2022-12-08T03:25:53.672Z,96.41
2022-12-08T03:26:53.662Z,96.51
2022-12-08T03:27:53.706Z,96.51
2022-12-08T03:28:53.753Z,95.99
2022-12-08T03:29:53.675Z,95.78
2022-12-08T03:30:53.717Z,95.89
2022-12-08T03:31:53.656Z,95.78
2022-12-08T03:32:53.667Z,95.84
2022-12-08T03:33:53.628Z,95.73
2022-12-08T03:34:53.622Z,95.73
2022-12-08T03:35:53.653Z,95.63
2022-12-08T03:36:53.638Z,95.63
2022-12-08T03:37:53.628Z,95.32
2022-12-08T03:38:53.636Z,95.32
2022-12-08T03:39:53.628Z,95.28
2022-12-08T03:40:53.583Z,94.86
2022-12-08T03:41:53.589Z,94.76
2022-12-08T03:42:53.576Z,94.13
2022-12-08T03:43:53.614Z,94.34
2022-12-08T03:44:53.597Z,93.93
2022-12-08T03:45:53.565Z,94.03
2022-12-08T03:46:53.558Z,93.72
2022-12-08T03:47:53.530Z,93.93
2022-12-08T03:48:53.584Z,93.62
2022-12-08T03:49:53.567Z,93.62
2022-12-08T03:50:53.535Z,93.82
2022-12-08T03:51:53.559Z,93.72
2022-12-08T03:52:53.510Z,93.62
2022-12-08T03:53:53.514Z,93.41
2022-12-08T03:54:53.532Z,93.30
2022-12-08T03:55:53.510Z,93.41
2022-12-08T03:56:53.491Z,93.41
2022-12-08T03:57:53.493Z,93.10
2022-12-08T03:58:53.473Z,93.10
2022-12-08T03:59:53.465Z,93.20
2022-12-08T04:00:53.473Z,93.20
2022-12-08T04:01:53.606Z,92.99
2022-12-08T04:02:53.548Z,93.30
2022-12-08T04:03:53.471Z,92.99
2022-12-08T04:04:53.418Z,93.10
2022-12-08T04:05:53.442Z,93.30
2022-12-08T04:06:53.417Z,93.14
2022-12-08T04:07:53.463Z,93.55
2022-12-08T04:08:53.405Z,93.30
2022-12-08T04:09:53.421Z,93.14
2022-12-08T04:10:53.400Z,93.20
2022-12-08T04:11:53.430Z,93.10
2022-12-08T04:12:53.395Z,93.10
2022-12-08T04:13:53.366Z,92.88
2022-12-08T04:14:53.373Z,92.68
2022-12-08T04:15:53.446Z,92.88
2022-12-08T04:16:53.390Z,92.78
2022-12-08T04:17:53.384Z,92.88
2022-12-08T04:18:53.338Z,92.78
2022-12-08T04:19:53.332Z,92.68
2022-12-08T04:20:53.342Z,92.68
2022-12-08T04:21:53.313Z,92.99
2022-12-08T04:22:53.345Z,92.88
2022-12-08T04:23:59.184Z,92.99
2022-12-08T04:24:55.301Z,93.10
2022-12-08T04:25:53.309Z,93.10
2022-12-08T04:26:53.300Z,92.94
2022-12-08T04:27:53.297Z,93.10
2022-12-08T04:28:53.370Z,93.41
2022-12-08T04:29:53.279Z,93.41
2022-12-08T04:30:53.265Z,93.72
2022-12-08T04:31:53.346Z,93.93
2022-12-08T04:32:53.246Z,93.72
2022-12-08T04:33:53.277Z,94.03
2022-12-08T04:34:53.254Z,93.93
2022-12-08T04:35:53.315Z,94.03
2022-12-08T04:36:53.235Z,94.13
2022-12-08T04:37:53.195Z,94.90
2022-12-08T04:38:53.233Z,95.36
2022-12-08T04:39:53.215Z,95.84
2022-12-08T04:40:53.193Z,96.15
2022-12-08T04:41:53.201Z,96.15
2022-12-08T04:42:53.233Z,95.63
2022-12-08T04:43:53.178Z,96.67
2022-12-08T04:44:53.176Z,96.61
2022-12-08T04:45:53.155Z,96.78
2022-12-08T04:46:53.325Z,96.98
2022-12-08T04:47:53.177Z,96.67
2022-12-08T04:48:53.157Z,96.67
2022-12-08T04:49:53.177Z,97.09
2022-12-08T04:50:53.149Z,96.88
2022-12-08T04:51:53.162Z,96.36
2022-12-08T04:52:53.173Z,96.25
2022-12-08T04:53:53.119Z,96.82
2022-12-08T04:54:53.136Z,95.94
2022-12-08T04:55:53.105Z,96.67
2022-12-08T04:56:53.113Z,96.00
2022-12-08T04:57:53.083Z,96.04
2022-12-08T04:58:53.090Z,96.47
2022-12-08T04:59:53.055Z,96.47
2022-12-08T05:00:53.240Z,96.15
2022-12-08T05:01:53.245Z,96.36
2022-12-08T05:02:53.082Z,96.36
2022-12-08T05:03:53.038Z,96.04
2022-12-08T05:04:53.049Z,95.59
2022-12-08T05:05:53.034Z,96.11
2022-12-08T05:06:53.030Z,95.90
2022-12-08T05:07:53.100Z,95.79
2022-12-08T05:08:53.042Z,96.00
2022-12-08T05:09:52.990Z,95.28
2022-12-08T05:10:53.108Z,96.11
2022-12-08T05:11:53.057Z,95.17
2022-12-08T05:12:52.976Z,95.28
2022-12-08T05:13:53.963Z,95.28
2022-12-08T05:14:52.962Z,94.96
2022-12-08T05:15:53.117Z,94.55
2022-12-08T05:16:53.080Z,94.76
2022-12-08T05:17:52.940Z,94.61
2022-12-08T05:18:52.921Z,94.45
2022-12-08T05:19:53.919Z,94.86
2022-12-08T05:20:52.964Z,94.61
2022-12-08T05:21:52.903Z,94.40
2022-12-08T05:22:52.955Z,94.71
2022-12-08T05:23:52.888Z,94.65
2022-12-08T05:24:52.911Z,94.76
2022-12-08T05:25:52.912Z,94.86
2022-12-08T05:26:52.932Z,94.76
2022-12-08T05:28:01.642Z,94.51
2022-12-08T05:28:54.888Z,94.30
2022-12-08T05:29:53.022Z,94.30
2022-12-08T05:30:52.924Z,94.30
2022-12-08T05:31:52.895Z,94.09
2022-12-08T05:32:52.844Z,94.13
2022-12-08T05:33:52.900Z,93.88
2022-12-08T05:34:52.827Z,93.78
2022-12-08T05:35:52.813Z,93.47
2022-12-08T05:36:52.811Z,93.47
2022-12-08T05:37:52.816Z,93.57
2022-12-08T05:38:52.907Z,93.57
2022-12-08T05:39:52.811Z,93.47
2022-12-08T05:40:52.802Z,93.78
2022-12-08T05:41:52.767Z,93.62
2022-12-08T05:42:52.801Z,93.82
2022-12-08T05:43:52.796Z,94.09
2022-12-08T05:44:52.778Z,94.13
2022-12-08T05:45:52.820Z,93.93
2022-12-08T05:46:52.739Z,94.03
2022-12-08T05:47:52.758Z,94.30
2022-12-08T05:48:52.844Z,94.30
2022-12-08T05:49:52.717Z,94.55
2022-12-08T05:50:52.752Z,94.65
2022-12-08T05:51:52.764Z,94.24
2022-12-08T05:52:52.716Z,94.55
2022-12-08T05:53:52.703Z,94.30
2022-12-08T05:54:52.785Z,94.24
2022-12-08T05:55:52.710Z,94.45
2022-12-08T05:56:52.724Z,94.65
2022-12-08T05:57:52.662Z,94.61
2022-12-08T05:58:52.696Z,94.51
2022-12-08T05:59:52.803Z,94.40
2022-12-08T06:00:52.682Z,94.61
2022-12-08T06:01:52.726Z,94.09
2022-12-08T06:02:52.737Z,94.30
2022-12-08T06:03:52.689Z,94.30
2022-12-08T06:04:52.692Z,93.99
2022-12-08T06:05:52.714Z,94.34
2022-12-08T06:06:52.653Z,94.24
2022-12-08T06:07:52.645Z,94.30
2022-12-08T06:08:52.645Z,94.40
2022-12-08T06:09:52.612Z,94.20
2022-12-08T06:10:52.710Z,94.40
2022-12-08T06:11:52.676Z,94.40
2022-12-08T06:12:52.595Z,94.09
2022-12-08T06:13:52.598Z,94.45
2022-12-08T06:14:52.565Z,94.30
2022-12-08T06:15:52.595Z,94.34
2022-12-08T06:16:52.777Z,94.30
2022-12-08T06:17:52.538Z,94.20
2022-12-08T06:18:52.553Z,94.20
2022-12-08T06:19:52.563Z,94.30
2022-12-08T06:20:52.619Z,93.88
2022-12-08T06:21:52.563Z,94.24
2022-12-08T06:22:52.558Z,94.45
2022-12-08T06:23:52.555Z,94.71
2022-12-08T06:24:52.527Z,94.86
2022-12-08T06:25:52.490Z,94.61
2022-12-08T06:26:52.506Z,95.03
2022-12-08T06:27:52.615Z,94.71
2022-12-08T06:28:52.515Z,94.71
2022-12-08T06:29:52.519Z,94.30
2022-12-08T06:30:52.491Z,94.61
2022-12-08T06:31:52.606Z,94.09
2022-12-08T06:32:52.463Z,94.20
2022-12-08T06:33:52.463Z,94.30
2022-12-08T06:34:52.434Z,94.30
2022-12-08T06:35:52.419Z,94.36
2022-12-08T06:36:52.450Z,93.74
2022-12-08T06:37:52.437Z,94.05
2022-12-08T06:38:52.461Z,94.05
2022-12-08T06:39:52.408Z,93.63
2022-12-08T06:40:52.404Z,93.53
2022-12-08T06:41:52.403Z,93.32
2022-12-08T06:42:52.371Z,93.22
2022-12-08T06:43:52.463Z,93.43
2022-12-08T06:44:52.575Z,93.37
2022-12-08T06:45:52.396Z,93.43
2022-12-08T06:46:52.351Z,93.78
2022-12-08T06:47:52.363Z,93.32
2022-12-08T06:48:52.439Z,93.26
2022-12-08T06:49:52.365Z,93.05
2022-12-08T06:50:52.332Z,93.12
2022-12-08T06:51:52.327Z,92.69
2022-12-08T06:53:01.118Z,92.80
2022-12-08T06:53:54.301Z,93.05
2022-12-08T06:54:52.316Z,93.12
2022-12-08T06:55:59.462Z,93.12
2022-12-08T06:56:54.318Z,92.80
2022-12-08T06:57:54.089Z,92.69
2022-12-08T06:58:53.399Z,92.28
2022-12-08T06:59:52.325Z,92.38
2022-12-08T07:00:52.390Z,92.38
2022-12-08T07:01:52.359Z,92.07
2022-12-08T07:02:52.287Z,92.07
2022-12-08T07:03:52.227Z,92.18
2022-12-08T07:04:52.270Z,91.97
2022-12-08T07:05:52.255Z,92.14
2022-12-08T07:06:52.212Z,91.86
2022-12-08T07:07:52.244Z,91.86
2022-12-08T07:08:52.228Z,91.76
2022-12-08T07:09:52.201Z,91.93
2022-12-08T07:10:52.344Z,91.97
2022-12-08T07:11:52.191Z,91.62
2022-12-08T07:12:52.187Z,91.55
2022-12-08T07:13:52.202Z,91.31
2022-12-08T07:14:52.197Z,91.10
2022-12-08T07:15:52.189Z,91.10
2022-12-08T07:16:52.251Z,91.31
2022-12-08T07:17:56.389Z,90.69
2022-12-08T07:18:54.170Z,90.83
2022-12-08T07:19:52.229Z,90.58
2022-12-08T07:20:52.189Z,91.31
2022-12-08T07:21:52.173Z,91.03
2022-12-08T07:22:52.136Z,91.41
2022-12-08T07:23:57.271Z,90.93
2022-12-08T07:24:54.200Z,90.79
2022-12-08T07:25:52.238Z,90.48
2022-12-08T07:26:52.124Z,90.37
2022-12-08T07:27:52.117Z,90.48
2022-12-08T07:28:52.155Z,90.48
2022-12-08T07:29:52.237Z,91.10
2022-12-08T07:30:52.216Z,91.31
2022-12-08T07:31:52.294Z,91.31
2022-12-08T07:32:52.088Z,91.31
2022-12-08T07:33:52.054Z,91.62
2022-12-08T07:34:52.074Z,91.00
2022-12-08T07:35:52.059Z,91.52
2022-12-08T07:36:52.050Z,91.41
2022-12-08T07:37:52.015Z,91.62
2022-12-08T07:38:52.025Z,91.00
2022-12-08T07:39:52.047Z,91.62
2022-12-08T07:40:52.002Z,91.41
2022-12-08T07:41:52.036Z,90.89
2022-12-08T07:42:52.064Z,91.20
2022-12-08T07:43:51.986Z,91.00
2022-12-08T07:44:51.994Z,91.41
2022-12-08T07:45:52.009Z,91.52
2022-12-08T07:46:51.987Z,91.83
2022-12-08T07:47:51.993Z,91.72
2022-12-08T07:48:52.983Z,91.10
2022-12-08T07:49:52.008Z,91.62
2022-12-08T07:50:51.980Z,91.00
2022-12-08T07:51:51.947Z,91.00
2022-12-08T07:52:51.927Z,92.18
2022-12-08T07:53:54.524Z,91.93
2022-12-08T07:54:52.928Z,91.86
2022-12-08T07:55:51.950Z,92.49
2022-12-08T07:56:51.888Z,92.35
2022-12-08T07:57:51.942Z,92.55
2022-12-08T07:58:51.939Z,92.45
2022-12-08T07:59:51.876Z,92.66
2022-12-08T08:00:51.907Z,92.66
2022-12-08T08:02:06.547Z,92.55
2022-12-08T08:02:53.985Z,92.66
2022-12-08T08:03:51.884Z,92.66
2022-12-08T08:04:52.096Z,92.66
2022-12-08T08:05:51.841Z,92.76
2022-12-08T08:06:51.822Z,92.66
2022-12-08T08:07:51.889Z,92.86
2022-12-08T08:08:51.814Z,92.76
2022-12-08T08:09:51.825Z,92.66
2022-12-08T08:10:51.799Z,92.90
2022-12-08T08:12:07.456Z,92.90
2022-12-08T08:12:53.825Z,93.12
2022-12-08T08:13:51.862Z,93.22
2022-12-08T08:14:51.802Z,92.90
2022-12-08T08:15:51.884Z,92.90
2022-12-08T08:16:51.898Z,93.18
2022-12-08T08:17:51.786Z,92.97
2022-12-08T08:18:51.742Z,93.18
2022-12-08T08:19:51.721Z,92.86
2022-12-08T08:20:51.763Z,93.07
2022-12-08T08:21:51.736Z,92.93
2022-12-08T08:22:51.744Z,92.97
2022-12-08T08:23:51.727Z,92.76
2022-12-08T08:24:52.706Z,92.55
2022-12-08T08:25:51.736Z,92.55
2022-12-08T08:26:51.700Z,92.24
2022-12-08T08:27:51.692Z,92.45
2022-12-08T08:28:51.691Z,92.35
2022-12-08T08:29:51.644Z,91.78
2022-12-08T08:30:51.744Z,92.14
2022-12-08T08:31:51.694Z,91.83
2022-12-08T08:32:51.656Z,92.14
2022-12-08T08:33:51.639Z,91.93
2022-12-08T08:34:51.650Z,92.20
2022-12-08T08:35:51.648Z,92.45
2022-12-08T08:36:51.749Z,92.24
2022-12-08T08:37:51.634Z,92.10
2022-12-08T08:38:51.593Z,92.10
2022-12-08T08:39:51.590Z,92.20
2022-12-08T08:40:51.616Z,92.03
2022-12-08T08:41:51.622Z,91.89
2022-12-08T08:42:51.569Z,91.78
2022-12-08T08:43:51.575Z,91.72
2022-12-08T08:44:51.591Z,92.30
2022-12-08T08:45:51.899Z,91.93
2022-12-08T08:46:51.564Z,91.89
2022-12-08T08:47:51.595Z,91.83
2022-12-08T08:48:51.539Z,91.68
2022-12-08T08:49:51.541Z,91.37
2022-12-08T08:50:51.531Z,91.89
2022-12-08T08:51:51.500Z,91.83
2022-12-08T08:52:51.540Z,91.68
2022-12-08T08:53:51.503Z,91.68
2022-12-08T08:54:51.493Z,91.78
2022-12-08T08:55:51.520Z,91.78
2022-12-08T08:56:51.507Z,91.68
2022-12-08T08:57:51.511Z,91.68
2022-12-08T08:58:51.483Z,91.37
2022-12-08T08:59:51.474Z,91.37
2022-12-08T09:00:51.467Z,91.37
2022-12-08T09:01:51.571Z,90.95
2022-12-08T09:02:51.473Z,91.27
2022-12-08T09:03:51.460Z,91.16
2022-12-08T09:04:51.596Z,90.44
2022-12-08T09:05:51.486Z,90.75
2022-12-08T09:06:51.414Z,90.64
2022-12-08T09:07:51.443Z,91.53
2022-12-08T09:08:51.420Z,91.43
2022-12-08T09:09:51.396Z,90.95
2022-12-08T09:10:51.418Z,90.44
2022-12-08T09:11:51.395Z,90.23
2022-12-08T09:12:51.370Z,90.64
2022-12-08T09:13:51.411Z,90.02
2022-12-08T09:14:51.353Z,90.23
2022-12-08T09:15:51.390Z,90.33
2022-12-08T09:16:51.395Z,90.54
2022-12-08T09:17:51.328Z,90.60
2022-12-08T09:18:51.363Z,90.23
2022-12-08T09:19:51.367Z,90.02
2022-12-08T09:20:51.335Z,89.92
2022-12-08T09:21:51.342Z,89.61
2022-12-08T09:22:51.314Z,89.67
2022-12-08T09:23:51.309Z,89.36
2022-12-08T09:24:51.352Z,89.09
2022-12-08T09:25:51.304Z,89.19
2022-12-08T09:26:51.311Z,89.81
2022-12-08T09:27:51.291Z,90.12
2022-12-08T09:28:51.265Z,89.67
2022-12-08T09:29:51.311Z,89.36
2022-12-08T09:30:51.329Z,90.19
2022-12-08T09:31:51.320Z,90.19
2022-12-08T09:32:51.268Z,90.50
2022-12-08T09:33:51.239Z,89.67
2022-12-08T09:34:52.341Z,89.56
2022-12-08T09:35:52.281Z,89.77
2022-12-08T09:36:51.270Z,88.42
2022-12-08T09:37:51.242Z,89.15
2022-12-08T09:38:51.248Z,89.15
2022-12-08T09:39:51.225Z,88.73
2022-12-08T09:40:51.221Z,89.04
2022-12-08T09:41:51.214Z,89.46
2022-12-08T09:42:51.190Z,88.94
2022-12-08T09:43:51.205Z,89.15
2022-12-08T09:44:51.215Z,88.90
2022-12-08T09:45:51.167Z,88.84
2022-12-08T09:46:51.260Z,88.90
2022-12-08T09:47:51.165Z,89.00
2022-12-08T09:48:51.149Z,88.39
2022-12-08T09:49:51.147Z,88.39
2022-12-08T09:50:51.121Z,88.63
2022-12-08T09:51:51.160Z,88.28
2022-12-08T09:52:51.124Z,88.69
2022-12-08T09:53:51.118Z,88.79
2022-12-08T09:54:51.089Z,88.76
2022-12-08T09:55:51.097Z,88.48
2022-12-08T09:56:51.115Z,88.59
2022-12-08T09:57:56.339Z,88.48
2022-12-08T09:58:52.153Z,88.28
2022-12-08T09:59:51.057Z,87.76
2022-12-08T10:00:51.077Z,87.51
2022-12-08T10:01:51.160Z,87.72
2022-12-08T10:02:52.071Z,87.82
2022-12-08T10:03:51.058Z,88.24
2022-12-08T10:04:51.130Z,87.93
2022-12-08T10:05:51.022Z,87.62
2022-12-08T10:06:51.021Z,87.62
2022-12-08T10:07:51.144Z,87.72
2022-12-08T10:08:51.050Z,88.34
2022-12-08T10:09:51.024Z,87.72
2022-12-08T10:10:51.046Z,88.24
2022-12-08T10:11:51.001Z,87.93
2022-12-08T10:12:51.035Z,87.82
2022-12-08T10:13:50.985Z,87.62
2022-12-08T10:14:50.980Z,88.34
2022-12-08T10:15:50.996Z,88.03
2022-12-08T10:16:51.018Z,88.13
2022-12-08T10:17:50.993Z,87.30
2022-12-08T10:18:50.961Z,87.51
2022-12-08T10:19:50.920Z,87.88
2022-12-08T10:20:50.925Z,87.37
2022-12-08T10:21:50.918Z,86.33
2022-12-08T10:22:50.914Z,87.37
2022-12-08T10:23:50.929Z,87.37
2022-12-08T10:24:50.916Z,87.37
2022-12-08T10:25:50.896Z,85.92
2022-12-08T10:26:50.909Z,86.50
2022-12-08T10:27:50.910Z,86.19
2022-12-08T10:28:50.909Z,86.40
2022-12-08T10:29:50.923Z,87.16
2022-12-08T10:30:50.855Z,87.23
2022-12-08T10:31:51.078Z,86.19
2022-12-08T10:32:50.847Z,86.40
2022-12-08T10:33:50.875Z,86.19
2022-12-08T10:34:56.111Z,86.85
2022-12-08T10:35:52.955Z,86.23
2022-12-08T10:36:50.877Z,86.19
2022-12-08T10:37:50.815Z,86.19
2022-12-08T10:38:50.799Z,86.29
2022-12-08T10:39:50.813Z,86.19
2022-12-08T10:40:50.871Z,85.68
2022-12-08T10:41:50.810Z,85.78
2022-12-08T10:42:50.769Z,85.47
2022-12-08T10:43:50.769Z,85.78
2022-12-08T10:44:50.780Z,85.99
2022-12-08T10:45:50.803Z,85.53
2022-12-08T10:46:50.835Z,85.32
2022-12-08T10:47:55.256Z,85.36
2022-12-08T10:48:51.756Z,85.53
2022-12-08T10:49:50.723Z,84.87
2022-12-08T10:50:50.833Z,85.02
2022-12-08T10:51:50.730Z,84.15
2022-12-08T10:52:51.213Z,83.84
2022-12-08T10:53:50.701Z,84.36
2022-12-08T10:54:50.716Z,84.42
2022-12-08T10:55:50.685Z,84.11
2022-12-08T10:56:50.737Z,83.39
2022-12-08T10:57:50.747Z,83.18
2022-12-08T10:58:50.682Z,83.49
2022-12-08T10:59:50.669Z,83.76
2022-12-08T11:00:50.770Z,83.45
2022-12-08T11:01:50.866Z,82.62
2022-12-08T11:02:50.730Z,82.31
2022-12-08T11:03:50.651Z,82.52
2022-12-08T11:04:50.666Z,82.25
2022-12-08T11:05:50.621Z,83.18
2022-12-08T11:06:50.650Z,83.45
2022-12-08T11:07:50.691Z,82.42
2022-12-08T11:08:50.617Z,83.28
2022-12-08T11:09:50.623Z,84.31
2022-12-08T11:10:50.612Z,83.53
2022-12-08T11:11:50.636Z,84.05
2022-12-08T11:12:50.618Z,84.36
2022-12-08T11:13:50.601Z,84.45
2022-12-08T11:14:50.585Z,85.14
2022-12-08T11:15:50.637Z,84.45
2022-12-08T11:16:50.629Z,84.25
2022-12-08T11:17:54.660Z,83.84
2022-12-08T11:18:52.607Z,84.36
2022-12-08T11:19:50.560Z,84.97
2022-12-08T11:20:50.626Z,84.87
2022-12-08T11:21:50.564Z,84.87
2022-12-08T11:22:50.563Z,85.70
2022-12-08T11:23:50.552Z,85.39
2022-12-08T11:24:50.521Z,85.49
2022-12-08T11:25:50.516Z,84.97
2022-12-08T11:26:50.519Z,85.42
2022-12-08T11:27:50.553Z,84.91
2022-12-08T11:28:50.595Z,84.91
2022-12-08T11:29:50.507Z,85.42
2022-12-08T11:30:50.638Z,86.05
2022-12-08T11:31:50.564Z,85.74
2022-12-08T11:32:50.542Z,85.49
2022-12-08T11:33:50.512Z,85.49
2022-12-08T11:34:50.455Z,85.80
2022-12-08T11:35:50.488Z,85.70
2022-12-08T11:36:50.467Z,84.81
2022-12-08T11:37:50.684Z,85.39
2022-12-08T11:38:50.478Z,85.60
2022-12-08T11:39:50.454Z,85.32
2022-12-08T11:40:50.432Z,85.53
2022-12-08T11:41:50.419Z,85.74
2022-12-08T11:42:50.412Z,86.05
2022-12-08T11:43:50.425Z,86.36
2022-12-08T11:44:50.396Z,86.25
2022-12-08T11:45:50.516Z,86.36
2022-12-08T11:46:50.375Z,86.25
2022-12-08T11:47:55.603Z,85.74
2022-12-08T11:48:52.416Z,85.84
2022-12-08T11:49:50.432Z,85.11
2022-12-08T11:50:50.342Z,85.57
2022-12-08T11:51:50.353Z,86.05
2022-12-08T11:52:50.343Z,86.09
2022-12-08T11:53:50.402Z,86.46
2022-12-08T11:54:50.328Z,86.29
2022-12-08T11:55:50.413Z,86.50
2022-12-08T11:56:50.332Z,87.23
2022-12-08T11:57:50.419Z,87.54
2022-12-08T11:58:50.314Z,87.33
2022-12-08T11:59:50.318Z,87.23
2022-12-08T12:00:50.290Z,87.54
2022-12-08T12:01:50.348Z,87.74
2022-12-08T12:02:50.342Z,87.29
2022-12-08T12:03:50.333Z,87.33
2022-12-08T12:04:50.272Z,87.33
2022-12-08T12:06:13.075Z,87.23
2022-12-08T12:06:55.775Z,87.54
2022-12-08T12:07:51.320Z,87.95
2022-12-08T12:08:50.264Z,88.12
2022-12-08T12:09:50.236Z,88.26
2022-12-08T12:10:50.215Z,87.43
2022-12-08T12:11:50.216Z,86.29
2022-12-08T12:12:50.234Z,87.43
2022-12-08T12:13:50.213Z,87.85
2022-12-08T12:14:50.188Z,87.85
2022-12-08T12:15:50.200Z,87.74
2022-12-08T12:16:50.227Z,87.64
2022-12-08T12:17:50.204Z,87.85
2022-12-08T12:18:50.168Z,88.36
2022-12-08T12:19:50.209Z,88.43
2022-12-08T12:20:50.184Z,88.36
2022-12-08T12:21:50.164Z,88.36
2022-12-08T12:22:50.202Z,88.67
2022-12-08T12:23:50.238Z,87.85
2022-12-08T12:24:50.170Z,88.57
2022-12-08T12:25:50.149Z,88.46
2022-12-08T12:26:50.187Z,88.26
2022-12-08T12:27:51.144Z,88.98
2022-12-08T12:28:50.109Z,88.57
2022-12-08T12:29:55.442Z,88.78
2022-12-08T12:30:52.111Z,88.67
2022-12-08T12:31:50.105Z,88.26
2022-12-08T12:32:50.176Z,88.26
2022-12-08T12:33:50.162Z,88.67
2022-12-08T12:34:50.057Z,88.36
2022-12-08T12:35:50.062Z,88.26
2022-12-08T12:36:50.058Z,88.88
2022-12-08T12:37:50.054Z,88.06
2022-12-08T12:38:50.080Z,88.67
2022-12-08T12:39:50.073Z,88.26
2022-12-08T12:40:50.038Z,88.26
2022-12-08T12:41:50.026Z,88.26
2022-12-08T12:42:50.030Z,88.01
2022-12-08T12:43:50.035Z,88.16
2022-12-08T12:44:50.025Z,88.01
2022-12-08T12:45:50.071Z,88.12
2022-12-08T12:46:49.992Z,88.22
2022-12-08T12:47:56.001Z,88.43
2022-12-08T12:48:51.977Z,87.76
2022-12-08T12:49:49.994Z,87.08
2022-12-08T12:50:49.958Z,87.08
2022-12-08T12:51:49.974Z,87.29
2022-12-08T12:52:49.935Z,87.18